Terminal Aerodrome Forecast
Issued by NWS

Home | Current Version | Previous Version | Text Only | Print | Product List | Glossary On
Versions: 1 2 3 4 5 6 7 8 9 10 11 12 13 14 15 16
000
FTPA31 PHFO 172334
TAFHOG
TAF
PHOG 172334Z 1800/1824 04011KT P6SM FEW030 SCT050
     FM180300 VRB05KT P6SM FEW030 SCT050
     FM182000 04011KT P6SM FEW030 SCT050
      AMD LTD TO VIS AND WIND 1809/1816=

USA.gov is the U.S. government's official web portal to all federal, state and local government web resources and services.